Time;durP1;ratioP1;P1;durP2;ratioP2;P2;SDS_P1;SDS_P2;PMS_P1;PMS_P2;Temp;Humidity;BMP_temperature;BMP_pressure;BME280_temperature;BME280_humidity;BME280_pressure;Samples;Min_cycle;Max_cycle;Signal;HPM_P1;HPM_P2
2023/03/15 00:00:29;;;;;;;7.78;1.55;;;;;;;;;;4999584;28;20428;-81
2023/03/15 00:03:03;;;;;;;6.18;1.58;;;;;;;;;;5014744;28;20433;-81
2023/03/15 00:05:36;;;;;;;8.82;1.75;;;;;;;;;;5008182;28;20424;-81
2023/03/15 00:08:11;;;;;;;7.57;1.48;;;;;;;;;;5021607;28;20944;-81
2023/03/15 00:10:44;;;;;;;8.27;1.42;;;;;;;;;;5013002;28;20432;-81
2023/03/15 00:13:17;;;;;;;7.78;1.60;;;;;;;;;;5004728;28;20433;-81
2023/03/15 00:15:45;;;;;;;7.10;1.50;;;;;;;;;;5012858;28;20439;-81
2023/03/15 00:18:15;;;;;;;6.93;1.65;;;;;;;;;;5010437;28;20413;-81
2023/03/15 00:20:48;;;;;;;5.93;1.40;;;;;;;;;;5023434;28;20428;-81
2023/03/15 00:23:21;;;;;;;6.03;1.40;;;;;;;;;;5007116;28;20445;-81
2023/03/15 00:25:54;;;;;;;9.27;1.70;;;;;;;;;;5006058;28;20442;-81
2023/03/15 00:28:26;;;;;;;6.20;1.55;;;;;;;;;;5003786;28;20426;-81
2023/03/15 00:31:04;;;;;;;6.00;1.60;;;;;;;;;;5011555;28;20430;-81
2023/03/15 00:33:34;;;;;;;4.97;1.50;;;;;;;;;;5014383;28;20431;-81
2023/03/15 00:36:08;;;;;;;5.60;1.67;;;;;;;;;;5010899;28;20429;-81
2023/03/15 00:38:42;;;;;;;7.15;1.60;;;;;;;;;;5010408;28;20413;-81
2023/03/15 00:41:16;;;;;;;7.80;1.83;;;;;;;;;;5005187;28;20508;-81
2023/03/15 00:43:49;;;;;;;6.10;1.90;;;;;;;;;;5022329;28;20537;-82
2023/03/15 00:46:21;;;;;;;7.43;2.10;;;;;;;;;;5013009;28;20432;-82
2023/03/15 00:48:56;;;;;;;10.82;2.05;;;;;;;;;;5008799;28;20432;-81
2023/03/15 00:51:29;;;;;;;7.07;1.70;;;;;;;;;;5006510;28;20439;-81
2023/03/15 00:54:02;;;;;;;7.65;1.77;;;;;;;;;;5006235;28;21368;-82
2023/03/15 00:56:34;;;;;;;7.57;1.70;;;;;;;;;;5009419;28;20424;-81
2023/03/15 00:59:07;;;;;;;6.32;1.80;;;;;;;;;;5020898;28;20432;-81
2023/03/15 01:01:35;;;;;;;7.00;1.70;;;;;;;;;;5019954;28;20798;-81
2023/03/15 01:04:10;;;;;;;7.57;1.80;;;;;;;;;;5023425;28;20421;-81
2023/03/15 01:06:39;;;;;;;7.43;1.90;;;;;;;;;;5007015;28;20404;-82
2023/03/15 01:09:06;;;;;;;8.57;2.10;;;;;;;;;;5022347;28;20430;-80
2023/03/15 01:11:35;;;;;;;6.18;1.65;;;;;;;;;;5008373;28;20432;-81
2023/03/15 01:14:03;;;;;;;6.80;1.40;;;;;;;;;;5005277;28;20874;-82
2023/03/15 01:16:31;;;;;;;5.97;1.57;;;;;;;;;;5018281;28;20433;-80
2023/03/15 01:19:04;;;;;;;6.43;1.75;;;;;;;;;;5018758;28;20435;-82
2023/03/15 01:21:38;;;;;;;5.57;1.60;;;;;;;;;;5002626;28;20762;-80
2023/03/15 01:24:12;;;;;;;5.60;1.50;;;;;;;;;;5005594;28;20436;-79
2023/03/15 01:26:44;;;;;;;5.85;1.63;;;;;;;;;;5020278;28;20445;-82
2023/03/15 01:29:12;;;;;;;4.45;1.52;;;;;;;;;;5017428;28;20433;-81
2023/03/15 01:31:45;;;;;;;7.67;1.80;;;;;;;;;;5003089;28;20432;-82
2023/03/15 01:34:18;;;;;;;8.43;2.08;;;;;;;;;;5015699;28;20914;-81
2023/03/15 01:36:49;;;;;;;6.53;1.65;;;;;;;;;;5002945;28;20426;-81
2023/03/15 01:39:17;;;;;;;6.90;1.80;;;;;;;;;;5001720;28;20430;-82
2023/03/15 01:41:50;;;;;;;7.45;1.80;;;;;;;;;;5008852;28;20424;-82
2023/03/15 01:44:18;;;;;;;6.93;1.65;;;;;;;;;;5009960;28;20435;-81
2023/03/15 01:46:51;;;;;;;6.68;1.73;;;;;;;;;;5009696;28;20765;-82
2023/03/15 01:49:24;;;;;;;7.00;1.60;;;;;;;;;;5016024;28;20430;-81
2023/03/15 01:52:01;;;;;;;7.07;1.80;;;;;;;;;;5022142;28;20775;-82
2023/03/15 01:55:10;;;;;;;6.18;2.00;;;;;;;;;;5000239;28;20438;-81
2023/03/15 01:58:05;;;;;;;8.85;2.10;;;;;;;;;;5009099;28;20744;-82
2023/03/15 02:00:35;;;;;;;7.55;1.83;;;;;;;;;;5002778;28;20423;-82
2023/03/15 02:03:13;;;;;;;7.22;1.90;;;;;;;;;;4999855;28;20441;-82
2023/03/15 02:05:53;;;;;;;8.93;2.03;;;;;;;;;;5007962;28;20432;-81
2023/03/15 02:08:39;;;;;;;9.63;2.20;;;;;;;;;;5008258;28;20424;-82
2023/03/15 02:11:13;;;;;;;11.75;2.40;;;;;;;;;;5009776;28;20420;-81
2023/03/15 02:13:42;;;;;;;8.55;2.30;;;;;;;;;;5019895;28;20445;-81
2023/03/15 02:16:10;;;;;;;6.68;2.25;;;;;;;;;;5018235;28;20434;-81
2023/03/15 02:18:51;;;;;;;9.25;2.40;;;;;;;;;;5000067;28;20416;-80
2023/03/15 02:21:35;;;;;;;7.90;2.40;;;;;;;;;;5015315;28;20429;-81
2023/03/15 02:24:18;;;;;;;7.50;2.65;;;;;;;;;;5005423;28;20500;-82
2023/03/15 02:26:53;;;;;;;11.02;3.10;;;;;;;;;;5016953;28;20512;-81
2023/03/15 02:29:23;;;;;;;10.27;3.20;;;;;;;;;;5008274;28;20434;-81
2023/03/15 02:31:51;;;;;;;8.82;3.10;;;;;;;;;;5003042;28;20412;-82
2023/03/15 02:34:25;;;;;;;9.32;3.13;;;;;;;;;;5017949;28;20422;-81
2023/03/15 02:36:58;;;;;;;7.75;3.17;;;;;;;;;;5008109;28;20428;-82
2023/03/15 02:39:31;;;;;;;9.02;3.60;;;;;;;;;;5018233;28;20446;-82
2023/03/15 02:42:04;;;;;;;8.55;3.70;;;;;;;;;;5019851;28;20449;-82
2023/03/15 02:44:35;;;;;;;10.23;3.72;;;;;;;;;;5016505;28;20948;-82
2023/03/15 02:47:04;;;;;;;9.65;3.70;;;;;;;;;;5000843;28;20433;-81
2023/03/15 02:49:39;;;;;;;8.40;3.47;;;;;;;;;;5016454;28;20432;-82
2023/03/15 02:52:13;;;;;;;12.88;3.80;;;;;;;;;;5008241;28;20432;-81
2023/03/15 02:54:42;;;;;;;8.98;3.63;;;;;;;;;;5006611;28;20425;-82
2023/03/15 02:57:10;;;;;;;9.95;3.95;;;;;;;;;;5015300;28;20436;-82
2023/03/15 02:59:40;;;;;;;8.98;3.85;;;;;;;;;;5001572;28;20414;-81
2023/03/15 03:02:10;;;;;;;9.60;3.92;;;;;;;;;;5020330;28;20462;-81
2023/03/15 03:04:43;;;;;;;8.65;3.50;;;;;;;;;;5002225;28;20427;-81
2023/03/15 03:07:18;;;;;;;7.65;3.83;;;;;;;;;;5015849;28;20751;-82
2023/03/15 03:09:54;;;;;;;9.32;4.13;;;;;;;;;;5015061;28;20435;-81
2023/03/15 03:12:27;;;;;;;8.57;4.00;;;;;;;;;;5006723;28;20424;-82
2023/03/15 03:14:56;;;;;;;9.43;4.10;;;;;;;;;;5018207;28;20452;-82
2023/03/15 03:17:30;;;;;;;9.48;3.85;;;;;;;;;;4999596;28;20514;-81
2023/03/15 03:20:06;;;;;;;8.57;4.20;;;;;;;;;;5015457;28;20428;-81
2023/03/15 03:22:44;;;;;;;11.73;4.30;;;;;;;;;;4998333;28;20825;-81
2023/03/15 03:25:12;;;;;;;9.48;4.28;;;;;;;;;;5000930;28;20427;-81
2023/03/15 03:27:47;;;;;;;9.77;4.25;;;;;;;;;;5000436;28;20908;-81
2023/03/15 03:30:17;;;;;;;8.73;3.90;;;;;;;;;;5006306;28;20432;-81
2023/03/15 03:32:51;;;;;;;12.80;3.83;;;;;;;;;;5000756;28;20526;-81
2023/03/15 03:35:24;;;;;;;11.23;3.67;;;;;;;;;;4999630;28;21052;-81
2023/03/15 03:37:57;;;;;;;7.90;3.80;;;;;;;;;;5007648;28;20420;-81
2023/03/15 03:40:32;;;;;;;9.25;3.38;;;;;;;;;;5006128;28;20431;-82
2023/03/15 03:43:00;;;;;;;7.25;3.47;;;;;;;;;;5016698;28;20940;-82
2023/03/15 03:45:30;;;;;;;7.88;3.55;;;;;;;;;;5017653;28;20420;-81
2023/03/15 03:48:03;;;;;;;7.55;3.15;;;;;;;;;;5001828;28;20889;-82
2023/03/15 03:50:35;;;;;;;7.38;3.50;;;;;;;;;;4996108;28;20431;-82
2023/03/15 03:53:08;;;;;;;8.35;3.30;;;;;;;;;;5001719;28;20418;-81
2023/03/15 03:55:41;;;;;;;6.35;2.92;;;;;;;;;;5000265;28;20434;-82
2023/03/15 03:58:09;;;;;;;8.25;3.13;;;;;;;;;;4999592;28;20434;-82
2023/03/15 04:00:53;;;;;;;6.70;2.97;;;;;;;;;;5005373;28;20420;-81
2023/03/15 04:03:25;;;;;;;6.57;2.80;;;;;;;;;;5015486;28;20443;-81
2023/03/15 04:06:05;;;;;;;7.95;2.90;;;;;;;;;;5015335;28;20432;-82
2023/03/15 04:08:42;;;;;;;8.20;3.10;;;;;;;;;;5006369;28;20425;-81
2023/03/15 04:11:35;;;;;;;7.68;2.85;;;;;;;;;;4999417;28;21397;-82
2023/03/15 04:14:09;;;;;;;6.72;2.88;;;;;;;;;;5017757;28;20921;-81
2023/03/15 04:16:38;;;;;;;7.60;3.10;;;;;;;;;;4999948;28;20943;-81
2023/03/15 04:19:15;;;;;;;6.63;3.28;;;;;;;;;;5011785;28;20422;-81
2023/03/15 04:21:46;;;;;;;9.32;3.03;;;;;;;;;;5017754;28;20418;-82
2023/03/15 04:24:34;;;;;;;7.05;2.90;;;;;;;;;;4988127;28;20414;-81
2023/03/15 04:27:13;;;;;;;7.47;3.03;;;;;;;;;;5000026;28;20488;-82
2023/03/15 04:30:04;;;;;;;6.85;3.08;;;;;;;;;;5007348;28;20425;-81
2023/03/15 04:32:57;;;;;;;6.97;3.05;;;;;;;;;;5001548;28;20424;-81
2023/03/15 04:35:51;;;;;;;6.85;2.75;;;;;;;;;;4993398;28;20425;-82
2023/03/15 04:38:46;;;;;;;6.68;2.88;;;;;;;;;;5014707;28;20430;-81
2023/03/15 04:41:38;;;;;;;7.53;3.10;;;;;;;;;;5014697;28;20449;-81
2023/03/15 04:44:29;;;;;;;6.40;2.90;;;;;;;;;;4995634;28;20443;-81
2023/03/15 04:47:16;;;;;;;7.57;3.40;;;;;;;;;;4998156;28;20422;-82
2023/03/15 04:50:02;;;;;;;8.35;3.50;;;;;;;;;;4999842;28;20432;-81
2023/03/15 04:52:45;;;;;;;9.27;3.30;;;;;;;;;;5010209;28;20431;-81
2023/03/15 04:55:34;;;;;;;7.95;3.25;;;;;;;;;;5019643;28;20424;-81
2023/03/15 04:58:27;;;;;;;8.40;3.30;;;;;;;;;;4995926;28;21478;-81
2023/03/15 05:01:27;;;;;;;6.47;3.03;;;;;;;;;;4981325;28;20424;-81
2023/03/15 05:04:13;;;;;;;6.95;2.78;;;;;;;;;;5018805;28;20753;-81
2023/03/15 05:06:54;;;;;;;8.83;3.00;;;;;;;;;;5000882;28;20417;-82
2023/03/15 05:09:50;;;;;;;6.97;2.90;;;;;;;;;;4969788;28;20798;-81
2023/03/15 05:12:56;;;;;;;6.93;3.00;;;;;;;;;;4993339;28;20447;-81
2023/03/15 05:15:43;;;;;;;8.25;3.15;;;;;;;;;;5004113;28;20419;-81
2023/03/15 05:18:37;;;;;;;7.63;3.03;;;;;;;;;;5009831;28;20442;-82
2023/03/15 05:21:29;;;;;;;10.13;3.20;;;;;;;;;;5010993;28;20416;-82
2023/03/15 05:24:15;;;;;;;9.45;3.20;;;;;;;;;;5019075;28;20430;-82
2023/03/15 05:27:08;;;;;;;9.50;3.13;;;;;;;;;;4972854;28;20418;-82
2023/03/15 05:30:03;;;;;;;8.83;3.07;;;;;;;;;;5000614;28;20436;-81
2023/03/15 05:32:57;;;;;;;9.05;3.20;;;;;;;;;;5021197;28;20424;-81
2023/03/15 05:35:45;;;;;;;8.77;3.40;;;;;;;;;;5002591;28;20451;-82
2023/03/15 05:38:36;;;;;;;10.75;3.72;;;;;;;;;;5004467;28;20427;-82
2023/03/15 05:41:22;;;;;;;11.60;3.50;;;;;;;;;;5019549;28;20415;-81
2023/03/15 05:43:55;;;;;;;8.45;3.25;;;;;;;;;;5006800;28;20432;-81
2023/03/15 05:46:42;;;;;;;7.55;3.45;;;;;;;;;;5016518;28;20895;-82
2023/03/15 05:49:35;;;;;;;10.15;3.10;;;;;;;;;;4997164;28;20434;-81
2023/03/15 05:52:38;;;;;;;10.05;3.53;;;;;;;;;;4989703;28;20530;-81
2023/03/15 05:55:20;;;;;;;8.70;3.65;;;;;;;;;;5002528;28;20974;-81
2023/03/15 05:58:12;;;;;;;9.98;3.75;;;;;;;;;;5010900;28;20423;-82
2023/03/15 06:01:05;;;;;;;10.40;3.42;;;;;;;;;;4996769;28;20959;-81
2023/03/15 06:03:53;;;;;;;11.35;3.55;;;;;;;;;;5004303;28;20940;-82
2023/03/15 06:06:29;;;;;;;8.60;3.45;;;;;;;;;;5018561;28;20409;-82
2023/03/15 06:08:57;;;;;;;9.68;3.60;;;;;;;;;;5015362;28;20441;-81
2023/03/15 06:11:25;;;;;;;10.32;3.30;;;;;;;;;;5015299;28;20762;-81
2023/03/15 06:14:01;;;;;;;9.80;3.50;;;;;;;;;;5002885;28;20425;-80
2023/03/15 06:16:46;;;;;;;10.55;3.72;;;;;;;;;;4999300;28;20441;-82
2023/03/15 06:19:20;;;;;;;8.50;3.70;;;;;;;;;;5015810;28;20437;-81
2023/03/15 06:21:54;;;;;;;9.88;3.90;;;;;;;;;;5007082;28;20784;-82
2023/03/15 06:24:47;;;;;;;9.45;3.80;;;;;;;;;;5002958;28;21029;-81
2023/03/15 06:27:15;;;;;;;10.00;4.40;;;;;;;;;;5016932;28;20425;-81
2023/03/15 06:29:44;;;;;;;11.50;4.70;;;;;;;;;;5014639;28;20436;-82
2023/03/15 06:32:19;;;;;;;13.13;5.90;;;;;;;;;;5015032;28;20795;-81
2023/03/15 06:34:52;;;;;;;17.88;7.53;;;;;;;;;;5004156;28;20451;-81
2023/03/15 06:37:25;;;;;;;15.82;7.38;;;;;;;;;;5007294;28;20421;-81
2023/03/15 06:39:58;;;;;;;17.38;8.27;;;;;;;;;;5007610;28;20807;-81
2023/03/15 06:42:31;;;;;;;17.50;8.77;;;;;;;;;;5002034;28;21089;-81
2023/03/15 06:45:06;;;;;;;21.20;9.32;;;;;;;;;;5016129;28;20916;-82
2023/03/15 06:47:35;;;;;;;19.08;9.13;;;;;;;;;;4999612;28;20430;-80
2023/03/15 06:50:05;;;;;;;18.50;8.35;;;;;;;;;;4999119;28;20424;-81
2023/03/15 06:52:38;;;;;;;17.80;8.82;;;;;;;;;;5017832;28;20430;-80
2023/03/15 06:55:06;;;;;;;19.70;9.40;;;;;;;;;;5007748;28;20478;-80
2023/03/15 06:57:33;;;;;;;18.23;8.93;;;;;;;;;;4999950;28;20430;-81
2023/03/15 07:00:10;;;;;;;19.30;8.80;;;;;;;;;;5017770;28;20512;-81
2023/03/15 07:02:38;;;;;;;20.23;9.32;;;;;;;;;;5000966;28;20434;-81
2023/03/15 07:05:11;;;;;;;20.90;9.57;;;;;;;;;;5000670;28;20436;-81
2023/03/15 07:07:43;;;;;;;20.67;9.23;;;;;;;;;;5003309;28;20420;-81
2023/03/15 07:10:11;;;;;;;18.58;8.85;;;;;;;;;;5006611;28;20452;-81
2023/03/15 07:12:39;;;;;;;21.38;8.90;;;;;;;;;;5014043;28;20430;-79
2023/03/15 07:15:13;;;;;;;16.85;8.30;;;;;;;;;;5016182;28;20437;-82
2023/03/15 07:17:46;;;;;;;18.25;8.23;;;;;;;;;;5001365;28;20457;-81
2023/03/15 07:20:14;;;;;;;17.85;8.65;;;;;;;;;;4999144;28;20435;-81
2023/03/15 07:22:44;;;;;;;16.60;8.63;;;;;;;;;;5002404;28;20430;-81
2023/03/15 07:25:12;;;;;;;15.63;7.90;;;;;;;;;;5005742;28;20436;-82
2023/03/15 07:27:44;;;;;;;15.85;8.25;;;;;;;;;;5004943;28;20893;-81
2023/03/15 07:30:19;;;;;;;15.43;8.07;;;;;;;;;;5001135;28;20508;-81
2023/03/15 07:32:47;;;;;;;16.63;8.02;;;;;;;;;;4998697;28;20436;-81
2023/03/15 07:35:16;;;;;;;16.35;8.38;;;;;;;;;;5017086;28;20440;-81
2023/03/15 07:37:44;;;;;;;17.25;8.23;;;;;;;;;;5004136;28;20420;-81
2023/03/15 07:40:17;;;;;;;14.85;8.13;;;;;;;;;;5013703;28;20784;-80
2023/03/15 07:42:45;;;;;;;19.80;8.15;;;;;;;;;;5004893;28;20803;-80
2023/03/15 07:45:19;;;;;;;13.88;7.70;;;;;;;;;;4998539;28;20436;-80
2023/03/15 07:47:52;;;;;;;17.00;7.53;;;;;;;;;;4999552;28;21151;-81
2023/03/15 07:50:25;;;;;;;15.02;6.65;;;;;;;;;;5015405;28;20479;-80
2023/03/15 07:52:53;;;;;;;16.25;7.65;;;;;;;;;;4997559;28;20436;-81
2023/03/15 07:55:26;;;;;;;15.82;6.93;;;;;;;;;;5012575;28;20791;-79
2023/03/15 07:57:59;;;;;;;15.32;6.57;;;;;;;;;;5014361;28;20436;-80
2023/03/15 08:00:33;;;;;;;11.00;6.20;;;;;;;;;;5020301;28;20435;-78
2023/03/15 08:03:06;;;;;;;13.13;6.13;;;;;;;;;;5000112;28;20917;-81
2023/03/15 08:05:39;;;;;;;12.95;6.15;;;;;;;;;;4994146;28;21106;-81
2023/03/15 08:08:07;;;;;;;13.43;6.20;;;;;;;;;;4973312;28;20785;-81
2023/03/15 08:10:39;;;;;;;11.97;6.00;;;;;;;;;;4984202;28;21887;-80
2023/03/15 08:13:08;;;;;;;12.25;5.70;;;;;;;;;;4983930;28;20433;-80
2023/03/15 08:15:44;;;;;;;10.90;5.22;;;;;;;;;;4983243;28;20716;-80
2023/03/15 08:18:17;;;;;;;10.75;4.80;;;;;;;;;;4976896;28;20439;-81
2023/03/15 08:20:51;;;;;;;9.10;3.63;;;;;;;;;;4978155;28;20432;-81
2023/03/15 08:23:18;;;;;;;9.57;3.88;;;;;;;;;;4981267;28;20436;-80
2023/03/15 08:25:49;;;;;;;9.70;4.10;;;;;;;;;;4984913;28;20427;-81
2023/03/15 08:28:21;;;;;;;9.00;4.13;;;;;;;;;;4985987;28;20887;-80
2023/03/15 08:30:55;;;;;;;11.40;4.78;;;;;;;;;;4989843;28;20432;-80
2023/03/15 08:33:23;;;;;;;9.87;5.00;;;;;;;;;;4988809;28;20614;-80
2023/03/15 08:35:56;;;;;;;9.60;4.80;;;;;;;;;;4979125;28;20948;-80
2023/03/15 08:38:29;;;;;;;9.20;4.30;;;;;;;;;;4998858;28;20440;-81
2023/03/15 08:41:02;;;;;;;8.07;3.65;;;;;;;;;;4981397;28;20437;-80
2023/03/15 08:43:30;;;;;;;6.57;2.80;;;;;;;;;;5004592;28;20436;-80
2023/03/15 08:45:59;;;;;;;6.80;2.97;;;;;;;;;;4981699;28;20443;-81
2023/03/15 08:48:32;;;;;;;4.80;2.40;;;;;;;;;;4995623;28;20793;-80
2023/03/15 08:51:06;;;;;;;5.20;2.20;;;;;;;;;;4989614;28;21121;-81
2023/03/15 08:53:34;;;;;;;5.25;2.40;;;;;;;;;;4980783;28;20947;-82
2023/03/15 08:56:08;;;;;;;5.65;2.00;;;;;;;;;;4987637;28;21217;-81
2023/03/15 08:58:41;;;;;;;5.55;2.20;;;;;;;;;;4984118;28;20491;-81
2023/03/15 09:01:15;;;;;;;5.70;2.38;;;;;;;;;;4980887;28;20959;-80
2023/03/15 09:03:43;;;;;;;7.00;3.15;;;;;;;;;;4979932;28;21383;-80
2023/03/15 09:06:11;;;;;;;6.88;3.40;;;;;;;;;;4982805;28;21137;-79
2023/03/15 09:08:44;;;;;;;9.75;3.45;;;;;;;;;;4994350;28;20467;-79
2023/03/15 09:11:17;;;;;;;8.20;3.55;;;;;;;;;;4983816;28;20891;-79
2023/03/15 09:13:50;;;;;;;7.35;3.60;;;;;;;;;;4996905;28;20440;-80
2023/03/15 09:16:24;;;;;;;8.73;3.58;;;;;;;;;;4986047;28;21811;-80
2023/03/15 09:18:56;;;;;;;9.63;3.67;;;;;;;;;;4986081;28;20448;-80
2023/03/15 09:21:24;;;;;;;8.65;3.90;;;;;;;;;;5001563;28;20447;-80
2023/03/15 09:23:52;;;;;;;10.68;3.55;;;;;;;;;;5009894;28;20426;-80
2023/03/15 09:26:20;;;;;;;7.05;2.63;;;;;;;;;;4986557;28;20436;-79
2023/03/15 09:28:53;;;;;;;5.45;2.42;;;;;;;;;;4984779;28;20437;-80
2023/03/15 09:31:21;;;;;;;6.10;2.25;;;;;;;;;;4984303;28;20440;-79
2023/03/15 09:33:50;;;;;;;5.50;2.28;;;;;;;;;;5007040;28;20441;-80
2023/03/15 09:36:23;;;;;;;4.95;1.90;;;;;;;;;;4989801;28;20424;-80
2023/03/15 09:38:51;;;;;;;4.13;1.70;;;;;;;;;;4991813;28;20812;-79
2023/03/15 09:41:34;;;;;;;4.32;1.80;;;;;;;;;;4983853;28;20432;-80
2023/03/15 09:44:20;;;;;;;5.68;1.95;;;;;;;;;;4982341;28;20436;-80
2023/03/15 09:47:00;;;;;;;5.13;1.65;;;;;;;;;;4978219;28;20487;-80
2023/03/15 09:49:40;;;;;;;3.92;1.58;;;;;;;;;;4990282;28;20440;-80
2023/03/15 09:52:21;;;;;;;3.97;1.45;;;;;;;;;;4989916;28;20429;-79
2023/03/15 09:54:56;;;;;;;5.78;1.65;;;;;;;;;;4989216;28;21166;-81
2023/03/15 09:57:34;;;;;;;8.48;1.85;;;;;;;;;;4985597;28;21081;-81
2023/03/15 10:00:11;;;;;;;6.90;1.70;;;;;;;;;;4982500;28;20457;-81
2023/03/15 10:02:42;;;;;;;6.18;1.70;;;;;;;;;;4990792;28;20440;-80
2023/03/15 10:05:19;;;;;;;5.50;2.00;;;;;;;;;;4982191;28;20436;-80
2023/03/15 10:07:52;;;;;;;6.88;2.08;;;;;;;;;;4982854;28;20500;-80
2023/03/15 10:10:27;;;;;;;8.18;2.30;;;;;;;;;;4979109;28;20918;-80
2023/03/15 10:13:06;;;;;;;5.32;2.05;;;;;;;;;;4981520;28;20440;-80
2023/03/15 10:15:43;;;;;;;4.90;1.88;;;;;;;;;;4985870;28;20425;-80
2023/03/15 10:18:17;;;;;;;4.30;1.77;;;;;;;;;;4984412;28;20436;-80
2023/03/15 10:20:55;;;;;;;6.40;1.92;;;;;;;;;;4984625;28;20413;-80
2023/03/15 10:23:34;;;;;;;6.57;1.63;;;;;;;;;;4978051;28;20451;-80
2023/03/15 10:26:08;;;;;;;3.42;1.45;;;;;;;;;;4982988;28;20429;-80
2023/03/15 10:28:43;;;;;;;4.75;1.60;;;;;;;;;;4982625;28;20964;-80
2023/03/15 10:31:19;;;;;;;5.30;1.30;;;;;;;;;;4983328;28;20448;-81
2023/03/15 10:33:53;;;;;;;2.67;1.15;;;;;;;;;;4996235;28;21087;-81
2023/03/15 10:36:27;;;;;;;5.70;1.08;;;;;;;;;;4986856;28;20455;-80
2023/03/15 10:39:00;;;;;;;3.55;1.10;;;;;;;;;;4984252;28;20448;-80
2023/03/15 10:41:37;;;;;;;5.45;1.75;;;;;;;;;;4986226;28;20468;-81
2023/03/15 10:44:12;;;;;;;5.10;1.20;;;;;;;;;;4986763;28;21233;-80
2023/03/15 10:46:59;;;;;;;4.38;1.00;;;;;;;;;;4986476;28;21118;-80
2023/03/15 10:49:35;;;;;;;3.90;0.90;;;;;;;;;;4982486;28;20441;-81
2023/03/15 10:52:23;;;;;;;5.22;1.20;;;;;;;;;;4980565;28;20436;-81
2023/03/15 10:54:59;;;;;;;5.43;1.13;;;;;;;;;;4985153;28;21015;-80
2023/03/15 10:57:34;;;;;;;6.45;1.30;;;;;;;;;;4999189;28;20432;-81
2023/03/15 11:00:05;;;;;;;6.22;1.27;;;;;;;;;;4990418;28;20448;-81
2023/03/15 11:02:38;;;;;;;5.90;1.20;;;;;;;;;;4988953;28;20941;-81
2023/03/15 11:05:16;;;;;;;6.93;1.23;;;;;;;;;;5010596;28;20443;-80
2023/03/15 11:07:55;;;;;;;6.57;1.52;;;;;;;;;;5009810;28;20438;-80
2023/03/15 11:10:33;;;;;;;5.22;1.15;;;;;;;;;;5000720;28;20473;-80
2023/03/15 11:13:18;;;;;;;4.65;1.17;;;;;;;;;;5003248;28;20435;-80
2023/03/15 11:15:54;;;;;;;8.20;1.35;;;;;;;;;;5002928;28;20431;-81
2023/03/15 11:18:28;;;;;;;6.13;1.20;;;;;;;;;;5005701;28;20445;-81
2023/03/15 11:21:03;;;;;;;6.15;1.42;;;;;;;;;;5003960;28;20441;-81
2023/03/15 11:23:37;;;;;;;4.97;1.20;;;;;;;;;;5008695;28;20434;-81
2023/03/15 11:26:15;;;;;;;4.97;1.60;;;;;;;;;;5004410;28;20435;-81
2023/03/15 11:28:50;;;;;;;4.30;1.33;;;;;;;;;;5011585;28;20435;-80
2023/03/15 11:31:25;;;;;;;8.30;1.88;;;;;;;;;;5005773;28;20439;-82
2023/03/15 11:33:56;;;;;;;5.53;1.50;;;;;;;;;;5006520;28;20530;-81
2023/03/15 11:36:26;;;;;;;5.78;1.40;;;;;;;;;;5010281;28;20423;-81
2023/03/15 11:38:55;;;;;;;6.55;1.50;;;;;;;;;;4995093;28;20438;-81
2023/03/15 11:41:29;;;;;;;4.72;1.42;;;;;;;;;;5002266;28;20461;-81
2023/03/15 11:44:03;;;;;;;4.80;1.40;;;;;;;;;;5005090;28;20422;-81
2023/03/15 11:46:32;;;;;;;4.22;1.48;;;;;;;;;;4997385;28;20887;-81
2023/03/15 11:49:03;;;;;;;7.28;1.50;;;;;;;;;;5002010;28;20439;-80
2023/03/15 11:51:33;;;;;;;5.50;1.60;;;;;;;;;;5008377;28;20426;-87
2023/03/15 11:54:08;;;;;;;8.30;1.73;;;;;;;;;;5011644;28;20427;-80
2023/03/15 11:56:47;;;;;;;4.97;1.50;;;;;;;;;;5007247;28;20427;-81
2023/03/15 11:59:21;;;;;;;4.18;1.25;;;;;;;;;;4999910;28;20957;-81
2023/03/15 12:01:58;;;;;;;7.18;1.35;;;;;;;;;;4996883;28;20442;-81
2023/03/15 12:04:49;;;;;;;5.72;1.10;;;;;;;;;;4979326;28;20438;-80
2023/03/15 12:07:27;;;;;;;4.57;1.10;;;;;;;;;;5001369;28;20427;-80
2023/03/15 12:09:55;;;;;;;5.03;1.13;;;;;;;;;;5001457;28;20430;-81
2023/03/15 12:12:38;;;;;;;6.93;1.23;;;;;;;;;;4999634;28;20442;-80
2023/03/15 12:15:14;;;;;;;6.38;1.17;;;;;;;;;;5002884;28;20427;-81
2023/03/15 12:17:50;;;;;;;5.75;1.50;;;;;;;;;;5000086;28;20427;-81
2023/03/15 12:20:20;;;;;;;6.22;1.60;;;;;;;;;;5001357;28;21222;-81
2023/03/15 12:22:51;;;;;;;6.25;1.50;;;;;;;;;;5008296;28;20435;-78
2023/03/15 12:25:29;;;;;;;4.57;0.90;;;;;;;;;;4997425;28;20435;-79
2023/03/15 12:28:08;;;;;;;5.80;1.27;;;;;;;;;;5010500;28;20442;-80
2023/03/15 12:30:38;;;;;;;2.92;0.85;;;;;;;;;;4997741;28;20447;-81
2023/03/15 12:33:13;;;;;;;5.35;1.00;;;;;;;;;;5008310;28;20429;-81
2023/03/15 12:35:41;;;;;;;6.13;1.65;;;;;;;;;;5000920;28;20430;-80
2023/03/15 12:38:15;;;;;;;6.35;1.77;;;;;;;;;;5004032;28;20437;-81
2023/03/15 12:40:51;;;;;;;5.55;1.33;;;;;;;;;;5003610;28;21092;-81
2023/03/15 12:43:38;;;;;;;6.18;1.00;;;;;;;;;;4998910;28;20430;-80
2023/03/15 12:46:06;;;;;;;6.30;1.10;;;;;;;;;;5001186;28;20437;-80
2023/03/15 12:48:59;;;;;;;5.00;1.02;;;;;;;;;;4999088;28;20426;-81
2023/03/15 12:51:42;;;;;;;5.82;1.17;;;;;;;;;;5005248;28;20442;-80
2023/03/15 12:54:14;;;;;;;9.52;1.13;;;;;;;;;;4997042;28;20439;-81
2023/03/15 12:56:49;;;;;;;5.38;1.00;;;;;;;;;;5002173;28;20521;-78
2023/03/15 12:59:21;;;;;;;8.95;0.98;;;;;;;;;;5004719;28;20929;-80
2023/03/15 13:01:54;;;;;;;6.82;1.17;;;;;;;;;;5005109;28;20526;-80
2023/03/15 13:04:28;;;;;;;6.70;1.20;;;;;;;;;;4983003;28;20431;-81
2023/03/15 13:07:07;;;;;;;5.80;1.20;;;;;;;;;;5003306;28;20442;-80
2023/03/15 13:09:57;;;;;;;6.93;1.13;;;;;;;;;;4995355;28;21019;-80
2023/03/15 13:12:28;;;;;;;4.75;1.13;;;;;;;;;;5023996;28;20439;-80
2023/03/15 13:15:00;;;;;;;5.00;1.20;;;;;;;;;;5017741;28;20439;-80
2023/03/15 13:17:35;;;;;;;5.00;1.20;;;;;;;;;;5004207;28;21350;-80
2023/03/15 13:20:13;;;;;;;4.78;1.27;;;;;;;;;;5019323;28;20445;-81
2023/03/15 13:22:49;;;;;;;6.25;1.15;;;;;;;;;;5006149;28;20938;-80
2023/03/15 13:25:25;;;;;;;6.95;0.70;;;;;;;;;;5025750;28;20419;-80
2023/03/15 13:27:54;;;;;;;6.00;1.02;;;;;;;;;;5002349;28;20783;-80
2023/03/15 13:30:32;;;;;;;6.38;1.20;;;;;;;;;;5001884;28;22414;-81
2023/03/15 13:33:10;;;;;;;7.07;1.23;;;;;;;;;;5002139;28;20442;-80
2023/03/15 13:35:42;;;;;;;4.80;1.00;;;;;;;;;;5023968;28;20443;-80
2023/03/15 13:38:21;;;;;;;7.85;1.10;;;;;;;;;;5002076;28;21013;-80
2023/03/15 13:40:49;;;;;;;4.35;1.00;;;;;;;;;;5004427;28;20960;-80
2023/03/15 13:43:24;;;;;;;3.30;0.90;;;;;;;;;;5001489;28;20435;-83
2023/03/15 13:45:59;;;;;;;6.57;1.10;;;;;;;;;;5000225;28;20431;-82
2023/03/15 13:48:32;;;;;;;4.35;1.00;;;;;;;;;;5003331;28;20426;-79
2023/03/15 13:51:07;;;;;;;4.15;1.17;;;;;;;;;;5018389;28;20439;-77
2023/03/15 13:53:40;;;;;;;5.18;1.05;;;;;;;;;;5004035;28;20435;-78
2023/03/15 13:56:15;;;;;;;3.42;0.95;;;;;;;;;;4999405;28;20926;-81
2023/03/15 13:58:48;;;;;;;6.65;1.42;;;;;;;;;;5007280;28;20446;-81
2023/03/15 14:01:18;;;;;;;8.45;1.38;;;;;;;;;;4999632;28;20433;-79
2023/03/15 14:03:49;;;;;;;9.23;1.38;;;;;;;;;;5007296;28;20662;-79
2023/03/15 14:06:21;;;;;;;9.13;1.63;;;;;;;;;;4982336;28;20458;-80
2023/03/15 14:08:49;;;;;;;7.82;1.52;;;;;;;;;;5014621;28;20435;-79
2023/03/15 14:11:18;;;;;;;5.55;1.00;;;;;;;;;;4998469;28;20445;-79
2023/03/15 14:13:48;;;;;;;9.15;1.30;;;;;;;;;;5003525;28;20435;-80
2023/03/15 14:16:16;;;;;;;5.78;1.50;;;;;;;;;;5004995;28;20426;-77
2023/03/15 14:18:53;;;;;;;6.25;1.25;;;;;;;;;;5007027;28;21222;-78
2023/03/15 14:21:30;;;;;;;6.65;1.27;;;;;;;;;;5009595;28;20774;-79
2023/03/15 14:24:05;;;;;;;6.22;1.40;;;;;;;;;;5009162;28;20434;-80
2023/03/15 14:26:38;;;;;;;6.25;1.42;;;;;;;;;;5006452;28;20434;-79
2023/03/15 14:29:07;;;;;;;7.13;1.80;;;;;;;;;;5009224;28;20519;-81
2023/03/15 14:31:45;;;;;;;7.25;1.73;;;;;;;;;;5003955;28;21898;-82
2023/03/15 14:34:23;;;;;;;8.43;1.73;;;;;;;;;;5002351;28;20982;-82
2023/03/15 14:36:52;;;;;;;6.60;1.60;;;;;;;;;;5005324;28;20443;-79
2023/03/15 14:39:27;;;;;;;6.00;1.17;;;;;;;;;;5001094;28;20434;-79
2023/03/15 14:42:00;;;;;;;6.25;1.27;;;;;;;;;;5005162;28;20446;-79
2023/03/15 14:44:33;;;;;;;3.87;1.00;;;;;;;;;;5006543;28;21309;-78
2023/03/15 14:47:07;;;;;;;4.47;1.02;;;;;;;;;;5004526;28;20430;-79
2023/03/15 14:49:41;;;;;;;10.68;2.42;;;;;;;;;;5006337;28;20434;-79
2023/03/15 14:52:12;;;;;;;12.95;4.90;;;;;;;;;;5002872;28;20438;-77
2023/03/15 14:54:46;;;;;;;5.70;1.13;;;;;;;;;;5006732;28;20437;-81
2023/03/15 14:57:14;;;;;;;4.33;1.00;;;;;;;;;;5007147;28;20438;-78
2023/03/15 14:59:49;;;;;;;7.67;1.20;;;;;;;;;;5025580;28;20431;-79
2023/03/15 15:02:17;;;;;;;6.07;1.27;;;;;;;;;;5003737;28;20434;-80
2023/03/15 15:04:51;;;;;;;7.00;1.17;;;;;;;;;;4976260;28;22996;-79
2023/03/15 15:07:20;;;;;;;5.38;1.20;;;;;;;;;;4996327;28;20434;-79
2023/03/15 15:09:53;;;;;;;6.47;1.10;;;;;;;;;;5001553;28;20438;-79
2023/03/15 15:12:26;;;;;;;4.82;1.05;;;;;;;;;;5002884;28;20442;-79
2023/03/15 15:14:58;;;;;;;8.23;1.00;;;;;;;;;;5001231;28;20441;-80
2023/03/15 15:17:31;;;;;;;7.80;1.08;;;;;;;;;;5000640;28;20438;-81
2023/03/15 15:20:07;;;;;;;5.72;1.20;;;;;;;;;;5005882;28;20433;-80
2023/03/15 15:22:35;;;;;;;6.57;1.20;;;;;;;;;;4998860;28;20446;-80
2023/03/15 15:25:05;;;;;;;7.05;1.15;;;;;;;;;;5004354;28;20441;-80
2023/03/15 15:27:38;;;;;;;5.50;1.40;;;;;;;;;;5012446;28;20844;-79